Time;durP1;ratioP1;P1;durP2;ratioP2;P2;SDS_P1;SDS_P2;PMS_P1;PMS_P2;Temp;Humidity;BMP_temperature;BMP_pressure;BME280_temperature;BME280_humidity;BME280_pressure;Samples;Min_cycle;Max_cycle;Signal;HPM_P1;HPM_P2
2022/10/07 00:01:36;;;;;;;4.95;2.58;;;;;;;8.43;86.91;95746.97;5131571;27;20609;-74
2022/10/07 00:04:03;;;;;;;4.90;3.30;;;;;;;8.42;87.11;95748.06;5131587;27;20204;-74
2022/10/07 00:06:29;;;;;;;5.78;2.90;;;;;;;8.38;87.62;95747.81;5131498;27;20260;-74
2022/10/07 00:08:56;;;;;;;5.63;2.22;;;;;;;8.25;87.84;95737.69;5131457;27;20250;-74
2022/10/07 00:11:25;;;;;;;5.38;2.58;;;;;;;8.37;87.80;95746.22;5130761;27;20236;-74
2022/10/07 00:13:54;;;;;;;4.72;2.15;;;;;;;8.37;88.22;95745.41;5131045;27;20626;-74
2022/10/07 00:16:24;;;;;;;8.52;3.15;;;;;;;8.26;88.05;95755.47;5131018;27;20227;-74
2022/10/07 00:18:55;;;;;;;3.78;2.35;;;;;;;8.27;88.87;95753.59;5131477;27;20300;-74
2022/10/07 00:21:22;;;;;;;3.65;2.50;;;;;;;8.26;88.65;95743.88;5117941;27;20246;-74
2022/10/07 00:23:48;;;;;;;6.00;2.88;;;;;;;8.24;88.79;95741.47;5131089;27;20721;-74
2022/10/07 00:26:18;;;;;;;4.47;2.25;;;;;;;8.17;88.90;95741.00;5131206;27;20253;-74
2022/10/07 00:28:45;;;;;;;3.72;2.13;;;;;;;8.19;88.84;95738.84;5130831;27;20197;-74
2022/10/07 00:31:14;;;;;;;5.63;2.97;;;;;;;8.03;89.55;95734.66;5131028;27;20228;-74
2022/10/07 00:33:41;;;;;;;6.03;2.97;;;;;;;8.10;89.63;95725.13;5130870;27;20196;-74
2022/10/07 00:36:11;;;;;;;7.25;2.15;;;;;;;8.14;89.25;95731.59;5130918;27;20236;-74
2022/10/07 00:38:38;;;;;;;4.22;2.65;;;;;;;8.09;89.06;95733.50;5130187;27;20695;-74
2022/10/07 00:41:06;;;;;;;6.75;2.92;;;;;;;8.09;89.08;95730.81;5130544;28;20288;-74
2022/10/07 00:43:33;;;;;;;4.53;1.90;;;;;;;8.05;89.28;95727.09;5130386;27;20608;-74
2022/10/07 00:46:05;;;;;;;3.55;1.83;;;;;;;8.07;89.14;95724.88;5130407;27;20204;-74
2022/10/07 00:48:36;;;;;;;5.30;4.00;;;;;;;8.07;89.60;95727.59;5131167;28;20189;-74
2022/10/07 00:51:03;;;;;;;7.18;4.10;;;;;;;8.10;90.02;95730.53;5133184;27;20767;-74
2022/10/07 00:53:35;;;;;;;4.65;2.20;;;;;;;8.10;90.10;95730.53;5134620;27;20192;-74
2022/10/07 00:56:04;;;;;;;4.15;2.00;;;;;;;8.06;90.13;95723.31;5135240;27;20197;-74
2022/10/07 00:58:34;;;;;;;3.42;2.10;;;;;;;8.00;90.21;95722.53;5134732;27;20656;-74
2022/10/07 01:01:01;;;;;;;3.00;1.85;;;;;;;7.96;90.55;95718.78;5135127;27;20229;-74
2022/10/07 01:03:29;;;;;;;5.70;2.53;;;;;;;8.02;90.68;95722.25;5135001;27;20201;-74
2022/10/07 01:05:56;;;;;;;3.90;1.50;;;;;;;8.09;90.08;95720.00;5135030;27;20611;-74
2022/10/07 01:08:23;;;;;;;3.65;1.60;;;;;;;8.04;90.31;95717.38;5114435;28;20197;-74
2022/10/07 01:11:12;;;;;;;5.53;1.42;;;;;;;7.98;90.79;95721.22;5114042;27;20237;-74
2022/10/07 01:13:48;;;;;;;5.60;2.28;;;;;;;7.98;90.85;95721.22;5134394;27;20680;-74
2022/10/07 01:16:23;;;;;;;2.58;1.67;;;;;;;7.97;90.75;95719.59;5134685;27;20192;-74
2022/10/07 01:18:57;;;;;;;2.95;1.95;;;;;;;7.91;91.23;95716.16;5134645;27;20196;-75
2022/10/07 01:21:33;;;;;;;3.45;2.13;;;;;;;7.92;91.32;95722.34;5120742;27;20195;-75
2022/10/07 01:24:14;;;;;;;3.25;1.98;;;;;;;7.71;91.74;95710.91;5134572;27;20249;-74
2022/10/07 01:27:01;;;;;;;3.55;1.50;;;;;;;7.67;92.06;95699.88;5134676;27;20205;-74
2022/10/07 01:29:35;;;;;;;4.50;2.13;;;;;;;7.61;92.45;95711.81;5120990;27;20195;-74
2022/10/07 01:32:07;;;;;;;2.72;1.33;;;;;;;7.66;92.28;95717.16;5134131;27;20695;-74
2022/10/07 01:34:36;;;;;;;4.07;1.77;;;;;;;7.69;92.37;95716.59;5134648;27;20201;-74
2022/10/07 01:37:05;;;;;;;4.65;1.45;;;;;;;7.64;92.71;95716.66;5134084;27;20277;-74
2022/10/07 01:39:38;;;;;;;1.50;1.33;;;;;;;7.64;91.91;95716.66;5134082;27;20232;-74
2022/10/07 01:42:07;;;;;;;4.00;1.77;;;;;;;7.55;92.47;95712.94;5133914;27;20193;-74
2022/10/07 01:44:35;;;;;;;2.53;1.60;;;;;;;7.59;92.91;95714.00;5133731;27;20548;-74
2022/10/07 01:47:02;;;;;;;3.22;1.83;;;;;;;7.60;93.02;95710.22;5133225;27;20208;-74
2022/10/07 01:49:29;;;;;;;2.92;1.90;;;;;;;7.65;93.18;95712.88;5133366;27;20230;-74
2022/10/07 01:52:14;;;;;;;2.15;1.20;;;;;;;7.65;92.83;95718.28;5133591;27;20756;-74
2022/10/07 01:54:54;;;;;;;3.47;1.77;;;;;;;7.52;92.84;95713.50;5134224;27;20242;-74
2022/10/07 01:57:32;;;;;;;4.47;3.17;;;;;;;7.56;93.29;95709.16;5133906;27;20228;-74
2022/10/07 02:00:06;;;;;;;5.28;3.13;;;;;;;7.56;92.59;95708.34;5133379;27;20185;-74
2022/10/07 02:02:48;;;;;;;5.47;3.35;;;;;;;7.47;92.25;95705.47;5132787;27;20241;-74
2022/10/07 02:05:24;;;;;;;3.20;1.65;;;;;;;7.52;92.66;95702.69;5121128;27;20195;-74
2022/10/07 02:08:12;;;;;;;2.40;1.67;;;;;;;7.22;93.14;95703.75;5133888;27;20192;-75
2022/10/07 02:10:54;;;;;;;4.60;1.70;;;;;;;7.11;92.69;95707.56;5134359;27;20277;-74
2022/10/07 02:13:31;;;;;;;3.65;1.48;;;;;;;7.02;94.28;95704.66;5127847;27;20222;-75
2022/10/07 02:16:04;;;;;;;4.50;2.90;;;;;;;6.95;94.30;95714.97;5144934;27;20200;-75
2022/10/07 02:18:33;;;;;;;5.22;3.45;;;;;;;6.93;94.73;95714.44;5144185;27;20193;-73
2022/10/07 02:21:04;;;;;;;4.32;2.30;;;;;;;6.97;95.57;95710.06;5138158;27;20231;-74
2022/10/07 02:23:34;;;;;;;2.63;1.70;;;;;;;6.78;96.26;95720.69;5136227;27;20197;-73
2022/10/07 02:26:04;;;;;;;4.03;2.17;;;;;;;6.92;97.07;95715.50;5133628;27;20195;-73
2022/10/07 02:28:35;;;;;;;2.20;1.25;;;;;;;7.04;96.96;95724.06;5132835;27;20213;-74
2022/10/07 02:31:04;;;;;;;5.20;1.75;;;;;;;7.00;96.60;95723.00;5119502;27;20229;-74
2022/10/07 02:33:33;;;;;;;3.75;2.45;;;;;;;7.07;96.67;95722.69;5132878;27;20734;-75
2022/10/07 02:36:04;;;;;;;2.92;1.63;;;;;;;7.10;95.66;95728.34;5133424;27;20225;-73
2022/10/07 02:38:31;;;;;;;6.05;3.70;;;;;;;7.08;95.51;95722.44;5133400;27;20273;-73
2022/10/07 02:41:04;;;;;;;5.50;3.50;;;;;;;7.04;95.67;95724.06;5133179;27;20254;-74
2022/10/07 02:43:39;;;;;;;6.45;2.70;;;;;;;7.10;95.64;95717.56;5132804;27;20196;-74
2022/10/07 02:46:11;;;;;;;6.45;3.17;;;;;;;7.13;94.53;95729.66;5132939;27;20185;-75
2022/10/07 02:48:43;;;;;;;2.28;1.67;;;;;;;6.98;95.48;95719.78;5132376;27;20197;-74
2022/10/07 02:51:17;;;;;;;4.50;2.95;;;;;;;6.88;95.63;95709.06;5132176;27;20293;-73
2022/10/07 02:53:48;;;;;;;6.45;3.38;;;;;;;6.94;95.86;95717.94;5132671;27;20195;-74
2022/10/07 02:56:16;;;;;;;1.83;1.60;;;;;;;6.99;95.48;95726.75;5132367;27;20235;-74
2022/10/07 02:58:46;;;;;;;4.20;2.92;;;;;;;6.96;96.01;95723.84;5132519;27;20284;-75
2022/10/07 03:01:17;;;;;;;4.47;3.17;;;;;;;6.78;95.82;95726.06;5132571;27;20222;-74
2022/10/07 03:03:44;;;;;;;6.13;3.42;;;;;;;6.69;96.83;95733.13;5132450;27;20185;-74
2022/10/07 03:06:13;;;;;;;6.18;3.00;;;;;;;6.81;96.66;95723.91;5132426;27;20200;-74
2022/10/07 03:08:41;;;;;;;2.22;1.23;;;;;;;6.65;95.38;95728.56;5131479;27;20640;-74
2022/10/07 03:11:08;;;;;;;2.25;1.33;;;;;;;6.57;96.78;95734.50;5132038;27;20285;-74
2022/10/07 03:13:35;;;;;;;1.60;1.50;;;;;;;6.46;96.86;95728.34;5131122;27;20266;-74
2022/10/07 03:16:04;;;;;;;1.67;1.35;;;;;;;6.54;97.29;95722.41;5132471;27;20239;-74
2022/10/07 03:18:31;;;;;;;3.50;1.83;;;;;;;6.58;97.11;95725.34;5132057;27;20197;-74
2022/10/07 03:20:59;;;;;;;2.70;1.80;;;;;;;6.56;97.11;95724.84;5131249;27;20230;-74
2022/10/07 03:23:28;;;;;;;2.33;1.45;;;;;;;6.48;97.79;95722.69;5131900;27;20234;-74
2022/10/07 03:25:57;;;;;;;2.85;2.00;;;;;;;6.46;97.71;95724.84;5131831;27;20762;-74
2022/10/07 03:28:26;;;;;;;5.43;3.83;;;;;;;6.52;97.84;95726.47;5132068;27;20189;-74
2022/10/07 03:30:53;;;;;;;7.68;3.75;;;;;;;6.48;97.89;95725.38;5132095;27;20200;-74
2022/10/07 03:33:24;;;;;;;5.70;3.42;;;;;;;6.55;97.25;95724.03;5131658;27;20703;-74
2022/10/07 03:35:51;;;;;;;5.10;1.92;;;;;;;6.65;97.11;95715.09;5131802;27;20360;-74
2022/10/07 03:38:18;;;;;;;3.17;2.10;;;;;;;6.69;96.78;95708.09;5131077;27;20201;-74
2022/10/07 03:40:45;;;;;;;2.75;1.45;;;;;;;6.41;97.84;95721.13;5131378;27;20253;-73
2022/10/07 03:43:12;;;;;;;3.42;1.77;;;;;;;6.49;98.84;95719.72;5131321;27;20630;-75
2022/10/07 03:45:43;;;;;;;5.30;2.70;;;;;;;6.54;99.09;95719.72;5130978;27;20277;-73
2022/10/07 03:48:10;;;;;;;3.58;1.98;;;;;;;6.49;98.80;95721.63;5131107;27;20204;-73
2022/10/07 03:50:38;;;;;;;3.95;2.08;;;;;;;6.58;98.93;95720.75;5129988;27;20325;-74
2022/10/07 03:53:05;;;;;;;7.13;2.70;;;;;;;6.40;99.55;95724.88;5131229;27;20239;-73
2022/10/07 03:55:32;;;;;;;4.63;2.58;;;;;;;6.40;100.00;95729.47;5130931;27;20201;-74
2022/10/07 03:57:58;;;;;;;7.32;2.30;;;;;;;6.50;100.00;95715.97;5130967;27;20197;-73
2022/10/07 04:00:27;;;;;;;4.90;2.42;;;;;;;6.58;100.00;95714.56;5131083;27;20266;-74
2022/10/07 04:02:56;;;;;;;8.90;4.57;;;;;;;6.43;100.00;95729.69;5128267;27;20201;-71
2022/10/07 04:05:23;;;;;;;8.60;5.25;;;;;;;6.46;100.00;95722.16;5129999;27;20204;-73
2022/10/07 04:07:52;;;;;;;8.68;5.20;;;;;;;6.46;100.00;95722.97;5129815;27;20242;-73
2022/10/07 04:10:19;;;;;;;7.45;4.75;;;;;;;6.46;100.00;95727.53;5124624;27;20227;-73
2022/10/07 04:12:48;;;;;;;7.82;5.10;;;;;;;6.41;100.00;95720.31;5128979;27;20261;-76
2022/10/07 04:15:15;;;;;;;11.05;4.93;;;;;;;6.56;100.00;95727.53;5129901;27;20204;-75
2022/10/07 04:17:43;;;;;;;4.68;2.33;;;;;;;6.60;100.00;95718.59;5130636;27;20201;-74
2022/10/07 04:20:11;;;;;;;1.67;1.20;;;;;;;6.90;100.00;95723.06;5129609;27;20319;-74
2022/10/07 04:22:38;;;;;;;10.95;3.25;;;;;;;6.78;100.00;95719.88;5129729;27;20245;-75
2022/10/07 04:27:53;;;;;;;3.33;2.28;;;;;;;6.76;100.00;95725.53;5129774;27;20531;-74
2022/10/07 04:30:21;;;;;;;4.00;2.42;;;;;;;6.76;100.00;95709.38;5130391;27;20270;-74
2022/10/07 04:32:49;;;;;;;3.72;2.17;;;;;;;6.90;100.00;95723.06;5130357;27;20301;-74
2022/10/07 04:35:16;;;;;;;5.05;2.65;;;;;;;6.86;100.00;95721.19;5130289;27;20719;-74
2022/10/07 04:37:43;;;;;;;4.45;2.72;;;;;;;6.97;100.00;95720.84;5130737;27;20204;-74
2022/10/07 04:40:11;;;;;;;3.35;2.45;;;;;;;6.73;100.00;95717.19;5129841;27;20287;-74
2022/10/07 04:45:25;;;;;;;8.35;3.08;;;;;;;6.98;100.00;95719.78;5102398;28;20209;-74
2022/10/07 04:47:51;;;;;;;3.55;2.40;;;;;;;7.16;100.00;95709.44;5130025;28;20281;-74
2022/10/07 04:50:18;;;;;;;6.15;3.63;;;;;;;7.37;100.00;95710.94;5129516;28;20289;-75
2022/10/07 04:52:45;;;;;;;5.53;2.78;;;;;;;7.77;97.54;95710.63;5129916;27;20233;-74
2022/10/07 04:55:13;;;;;;;5.38;3.00;;;;;;;9.11;98.42;95701.56;5130346;28;20265;-74
2022/10/07 04:57:40;;;;;;;4.82;3.42;;;;;;;9.94;87.72;95703.53;5130571;27;20233;-74
2022/10/07 05:00:09;;;;;;;5.18;2.85;;;;;;;11.32;82.59;95697.03;5130155;28;20277;-74
2022/10/07 05:02:36;;;;;;;8.13;2.85;;;;;;;12.63;78.24;95683.97;5130153;28;20215;-74
2022/10/07 05:05:03;;;;;;;7.07;3.35;;;;;;;13.87;73.05;95686.25;5130278;28;20205;-74
2022/10/07 05:07:30;;;;;;;14.02;4.00;;;;;;;13.18;71.60;95694.41;5130250;28;20197;-74
2022/10/07 05:09:57;;;;;;;4.82;2.83;;;;;;;14.35;69.01;95691.44;5130256;28;20521;-74
2022/10/07 05:12:26;;;;;;;10.52;5.03;;;;;;;15.10;65.53;95691.81;5129758;28;20726;-74
2022/10/07 05:14:53;;;;;;;5.25;2.85;;;;;;;15.29;63.63;95689.44;5130337;28;20204;-73
2022/10/07 05:17:20;;;;;;;6.55;3.55;;;;;;;15.29;62.42;95703.09;5130148;27;20209;-73
2022/10/07 05:19:47;;;;;;;4.22;3.05;;;;;;;16.64;62.01;95699.84;5129970;28;20233;-74
2022/10/07 05:22:14;;;;;;;5.15;3.10;;;;;;;17.17;58.24;95695.31;5129566;28;20216;-73
2022/10/07 05:24:41;;;;;;;9.85;3.67;;;;;;;17.52;56.40;95699.16;5129670;28;20278;-73
2022/10/07 05:27:08;;;;;;;7.38;3.35;;;;;;;18.16;56.17;95703.81;5129456;28;20660;-73
2022/10/07 05:29:36;;;;;;;10.55;4.57;;;;;;;18.64;52.87;95691.00;5130034;28;20205;-73
2022/10/07 05:32:03;;;;;;;9.68;3.25;;;;;;;18.87;52.19;95699.41;5129551;28;20242;-74
2022/10/07 05:34:29;;;;;;;12.40;3.40;;;;;;;19.36;52.96;95697.09;5129776;28;20205;-73
2022/10/07 05:36:58;;;;;;;4.53;2.78;;;;;;;19.41;51.71;95696.78;5131411;27;20225;-73
2022/10/07 05:39:24;;;;;;;6.38;2.75;;;;;;;19.59;52.61;95700.78;5133834;27;20216;-73
2022/10/07 05:41:51;;;;;;;8.50;3.75;;;;;;;19.98;49.57;95692.56;5133408;27;20200;-72
2022/10/07 05:44:18;;;;;;;6.38;3.28;;;;;;;20.03;49.39;95695.03;5133437;27;20659;-72
2022/10/07 05:46:46;;;;;;;6.03;3.88;;;;;;;19.84;49.75;95696.63;5133264;27;20671;-72
2022/10/07 05:49:13;;;;;;;6.75;3.95;;;;;;;19.72;50.24;95698.69;5132846;27;20610;-73
2022/10/07 05:51:40;;;;;;;4.53;2.80;;;;;;;20.26;49.78;95706.09;5133348;27;20280;-72
2022/10/07 05:54:07;;;;;;;4.68;2.55;;;;;;;20.45;48.74;95706.94;5132577;27;20236;-72
2022/10/07 05:56:35;;;;;;;5.40;3.08;;;;;;;20.72;48.43;95698.75;5133482;27;20225;-71
2022/10/07 05:59:03;;;;;;;10.07;2.85;;;;;;;20.74;47.82;95710.22;5133398;27;20639;-71
2022/10/07 06:01:30;;;;;;;5.03;2.90;;;;;;;21.59;45.97;95714.41;5132814;27;20197;-72
2022/10/07 06:03:58;;;;;;;5.55;2.95;;;;;;;22.05;43.87;95706.78;5133560;27;20209;-73
2022/10/07 06:06:26;;;;;;;5.13;3.30;;;;;;;21.41;44.99;95705.84;5133099;27;20728;-73
2022/10/07 06:08:53;;;;;;;5.55;3.72;;;;;;;21.39;45.08;95704.63;5133255;27;20560;-73
2022/10/07 06:14:05;;;;;;;4.88;3.17;;;;;;;22.43;43.54;95691.84;5133031;27;20721;-73
2022/10/07 06:16:32;;;;;;;4.20;3.28;;;;;;;22.05;43.06;95700.47;5132967;27;20246;-73
2022/10/07 06:19:00;;;;;;;6.18;3.13;;;;;;;21.48;44.89;95702.41;5133040;27;20212;-73
2022/10/07 06:21:27;;;;;;;4.53;3.00;;;;;;;21.14;45.23;95718.78;5132090;27;20744;-73
2022/10/07 06:23:54;;;;;;;5.82;3.42;;;;;;;21.77;43.96;95706.38;5132694;27;20200;-72
2022/10/07 06:26:22;;;;;;;34.83;17.13;;;;;;;21.18;45.24;95716.88;5132353;27;20201;-73
2022/10/07 06:28:49;;;;;;;38.28;19.23;;;;;;;20.60;46.57;95707.19;5127964;27;20192;-73
2022/10/07 06:31:21;;;;;;;21.50;11.70;;;;;;;20.24;47.27;95709.22;5132758;27;20192;-72
2022/10/07 06:33:48;;;;;;;25.13;11.40;;;;;;;21.13;45.59;95719.94;5132792;27;20223;-72
2022/10/07 06:36:17;;;;;;;12.32;6.75;;;;;;;20.96;45.64;95714.94;5132533;27;20760;-73
2022/10/07 06:38:45;;;;;;;7.93;4.10;;;;;;;19.43;49.17;95716.47;5132721;27;20205;-73
2022/10/07 06:41:13;;;;;;;9.38;4.70;;;;;;;19.50;48.97;95716.69;5132357;27;20238;-73
2022/10/07 06:43:40;;;;;;;5.82;3.95;;;;;;;19.20;50.21;95729.28;5132515;27;20197;-72
2022/10/07 06:46:08;;;;;;;6.47;4.28;;;;;;;17.03;56.25;95745.75;5132742;27;20257;-73
2022/10/07 06:48:35;;;;;;;8.93;4.20;;;;;;;17.34;57.37;95741.66;5132189;27;20619;-73
2022/10/07 06:51:03;;;;;;;9.55;4.72;;;;;;;18.16;54.14;95742.19;5131387;27;20237;-73
2022/10/07 06:53:31;;;;;;;8.25;5.20;;;;;;;18.03;54.31;95737.91;5132232;27;20323;-72
2022/10/07 06:56:02;;;;;;;10.27;4.63;;;;;;;17.97;55.44;95734.59;5131774;27;20271;-72
2022/10/07 06:58:29;;;;;;;7.57;5.00;;;;;;;16.86;57.88;95756.91;5131882;27;20597;-72
2022/10/07 07:00:56;;;;;;;6.35;4.60;;;;;;;17.47;56.86;95747.91;5132193;27;20201;-72
2022/10/07 07:03:24;;;;;;;6.78;4.18;;;;;;;17.29;57.75;95752.81;5132646;27;20228;-72
2022/10/07 07:05:51;;;;;;;6.68;3.80;;;;;;;17.29;57.00;95752.81;5131601;27;20245;-73
2022/10/07 07:08:18;;;;;;;9.45;4.22;;;;;;;17.50;56.61;95737.06;5131992;27;20242;-73
2022/10/07 07:10:47;;;;;;;7.13;4.60;;;;;;;16.65;60.02;95756.19;5129679;27;20216;-73
2022/10/07 07:13:14;;;;;;;7.05;4.50;;;;;;;16.51;58.15;95744.72;5130190;27;20248;-72
2022/10/07 07:15:41;;;;;;;5.75;4.20;;;;;;;16.63;56.88;95742.03;5131471;27;20201;-74
2022/10/07 07:18:10;;;;;;;5.75;4.10;;;;;;;16.28;58.13;95747.81;5131527;27;20661;-73
2022/10/07 07:20:38;;;;;;;5.07;3.50;;;;;;;16.44;58.38;95738.97;5129771;27;20200;-74
2022/10/07 07:23:06;;;;;;;9.07;4.55;;;;;;;16.69;58.22;95746.13;5129567;27;20532;-73
2022/10/07 07:25:36;;;;;;;8.45;4.45;;;;;;;16.49;59.05;95746.97;5130846;27;20675;-72
2022/10/07 07:28:05;;;;;;;8.25;4.53;;;;;;;16.67;59.64;95745.69;5130979;27;20249;-72
2022/10/07 07:30:32;;;;;;;6.38;4.07;;;;;;;16.42;59.22;95733.03;5127209;27;20193;-72
2022/10/07 07:33:00;;;;;;;5.07;4.05;;;;;;;16.31;59.15;95741.69;5131091;27;20694;-73
2022/10/07 07:35:31;;;;;;;5.75;3.83;;;;;;;15.79;58.87;95735.88;5130819;27;20564;-73
2022/10/07 07:37:58;;;;;;;11.38;4.40;;;;;;;15.61;60.69;95729.72;5130995;27;20194;-72
2022/10/07 07:40:26;;;;;;;5.80;4.40;;;;;;;15.81;61.41;95732.81;5130202;27;20270;-73
2022/10/07 07:42:54;;;;;;;11.90;5.30;;;;;;;16.16;60.76;95728.63;5131493;27;20197;-71
2022/10/07 07:45:23;;;;;;;7.75;5.13;;;;;;;16.42;59.85;95727.56;5131057;27;20197;-72
2022/10/07 07:47:50;;;;;;;10.07;6.07;;;;;;;16.44;58.93;95728.84;5131137;27;20728;-73
2022/10/07 07:50:19;;;;;;;10.60;5.70;;;;;;;16.69;57.83;95725.06;5130926;27;20243;-73
2022/10/07 07:52:46;;;;;;;10.57;5.75;;;;;;;16.53;58.33;95731.50;5129033;27;20291;-73
2022/10/07 07:55:13;;;;;;;9.55;5.53;;;;;;;16.67;58.86;95732.03;5129568;27;20228;-72
2022/10/07 07:57:42;;;;;;;7.78;5.00;;;;;;;17.14;56.09;95717.91;5129360;27;20197;-73
2022/10/07 08:00:10;;;;;;;10.40;5.45;;;;;;;16.86;57.61;95724.06;5128772;27;20720;-73
2022/10/07 08:02:38;;;;;;;8.30;5.38;;;;;;;17.16;57.40;95715.63;5129843;27;20224;-73
2022/10/07 08:05:06;;;;;;;9.93;4.38;;;;;;;17.39;57.10;95703.06;5129363;27;20209;-73
2022/10/07 08:07:34;;;;;;;7.47;4.05;;;;;;;16.93;55.83;95712.56;5129678;27;20283;-72
2022/10/07 08:10:01;;;;;;;9.98;4.80;;;;;;;16.97;57.02;95703.31;5129232;27;20225;-72
2022/10/07 08:12:28;;;;;;;10.90;4.90;;;;;;;17.10;56.79;95695.88;5130529;27;20197;-73
2022/10/07 08:14:54;;;;;;;4.82;3.20;;;;;;;17.36;52.59;95703.72;5130745;27;20278;-73
2022/10/07 08:17:21;;;;;;;4.88;2.88;;;;;;;17.59;52.39;95687.63;5130767;27;20217;-73
2022/10/07 08:19:49;;;;;;;4.45;2.70;;;;;;;17.80;51.33;95690.22;5130704;27;20204;-73
2022/10/07 08:22:16;;;;;;;5.72;2.63;;;;;;;17.70;52.14;95695.03;5130548;27;20197;-73
2022/10/07 08:24:43;;;;;;;2.70;2.38;;;;;;;17.92;51.10;95701.13;5129720;27;20201;-72
2022/10/07 08:27:10;;;;;;;5.45;2.40;;;;;;;18.04;49.78;95690.16;5129684;27;20682;-71
2022/10/07 08:29:37;;;;;;;8.77;3.63;;;;;;;17.92;51.60;95687.41;5129535;27;20637;-72
2022/10/07 08:32:04;;;;;;;7.60;4.10;;;;;;;18.06;52.19;95682.34;5130304;27;20209;-74
2022/10/07 08:34:31;;;;;;;8.13;3.90;;;;;;;17.96;50.55;95682.84;5129194;27;20233;-75
2022/10/07 08:36:59;;;;;;;9.15;3.90;;;;;;;18.04;51.64;95673.69;5129899;27;20760;-72
2022/10/07 08:39:28;;;;;;;5.95;3.03;;;;;;;17.99;50.61;95671.19;5130557;27;20212;-73
2022/10/07 08:42:07;;;;;;;4.40;2.40;;;;;;;18.29;48.75;95666.94;5130248;27;20740;-73
2022/10/07 08:44:38;;;;;;;6.28;3.17;;;;;;;18.29;51.25;95675.16;5129934;28;20527;-72
2022/10/07 08:47:22;;;;;;;7.20;3.65;;;;;;;18.39;50.03;95674.66;5129792;28;20205;-73
2022/10/07 08:49:59;;;;;;;6.78;2.80;;;;;;;18.40;48.63;95670.75;5128840;28;20753;-73
2022/10/07 08:52:34;;;;;;;5.93;2.30;;;;;;;18.55;47.36;95660.16;5130455;28;20200;-74
2022/10/07 08:55:02;;;;;;;3.35;1.95;;;;;;;18.48;47.58;95669.78;5133382;28;20228;-75
2022/10/07 08:57:42;;;;;;;3.55;2.38;;;;;;;18.44;47.23;95652.44;5132811;27;20216;-72
2022/10/07 09:00:16;;;;;;;6.50;2.63;;;;;;;18.44;47.72;95655.19;5129572;28;20583;-73
2022/10/07 09:02:59;;;;;;;3.33;2.30;;;;;;;18.45;47.64;95656.75;5129707;28;20189;-72
2022/10/07 09:05:31;;;;;;;5.63;2.55;;;;;;;18.43;47.05;95659.09;5118249;28;20205;-73
2022/10/07 09:08:02;;;;;;;3.88;2.45;;;;;;;18.06;48.16;95658.47;5130563;28;20239;-73
2022/10/07 09:10:33;;;;;;;4.90;2.70;;;;;;;18.38;48.89;95648.34;5130088;27;20625;-72
2022/10/07 09:13:03;;;;;;;2.72;2.30;;;;;;;18.28;47.22;95646.13;5134099;27;20205;-71
2022/10/07 09:15:41;;;;;;;5.40;2.03;;;;;;;18.38;46.73;95642.88;5133746;27;20652;-73
2022/10/07 09:18:19;;;;;;;4.88;2.10;;;;;;;18.44;46.92;95633.25;5134076;27;20193;-72
2022/10/07 09:20:52;;;;;;;3.92;2.80;;;;;;;18.44;47.76;95630.50;5133671;27;20668;-71
2022/10/07 09:23:22;;;;;;;4.03;2.50;;;;;;;18.55;47.21;95625.28;5133819;27;20730;-72
2022/10/07 09:25:50;;;;;;;4.90;2.47;;;;;;;18.44;46.23;95625.00;5133935;27;20188;-71
2022/10/07 09:28:21;;;;;;;7.90;2.20;;;;;;;18.42;47.22;95627.31;5132877;27;20211;-71
2022/10/07 09:30:48;;;;;;;3.58;2.50;;;;;;;18.22;47.25;95625.59;5132326;27;20224;-71
2022/10/07 09:33:16;;;;;;;3.35;2.28;;;;;;;17.90;47.38;95629.44;5132954;27;20250;-73
2022/10/07 09:35:52;;;;;;;5.65;2.70;;;;;;;17.89;47.15;95627.81;5132615;27;20221;-71
2022/10/07 09:38:29;;;;;;;5.20;1.95;;;;;;;17.58;47.91;95632.00;5133701;27;20760;-71
2022/10/07 09:41:16;;;;;;;3.97;2.58;;;;;;;17.70;48.73;95623.78;5133766;27;20201;-73
2022/10/07 09:43:55;;;;;;;3.92;2.15;;;;;;;17.82;47.34;95619.38;5133776;27;20201;-72
2022/10/07 09:46:51;;;;;;;4.05;2.20;;;;;;;18.08;47.28;95625.19;5133401;27;20200;-72
2022/10/07 09:49:40;;;;;;;3.47;1.85;;;;;;;17.90;46.84;95618.47;5063808;27;20201;-72
2022/10/07 09:52:16;;;;;;;3.67;2.45;;;;;;;18.19;47.00;95612.56;5132637;27;20201;-74
2022/10/07 09:54:47;;;;;;;2.67;2.05;;;;;;;18.52;48.13;95605.97;5132343;27;20236;-73
2022/10/07 09:57:26;;;;;;;2.65;1.92;;;;;;;18.41;46.50;95609.25;5132773;27;20189;-74
2022/10/07 10:00:16;;;;;;;3.90;2.05;;;;;;;18.65;47.18;95602.00;5132984;27;20200;-73
2022/10/07 10:02:48;;;;;;;4.63;2.55;;;;;;;18.60;45.78;95596.78;5132971;27;20200;-72
2022/10/07 10:05:25;;;;;;;3.58;1.95;;;;;;;18.67;45.76;95591.47;5119910;27;20276;-72
2022/10/07 10:08:01;;;;;;;3.45;1.95;;;;;;;18.53;45.35;95585.59;5132928;27;20659;-72
2022/10/07 10:10:32;;;;;;;3.17;2.08;;;;;;;18.48;46.21;95584.72;5133363;27;20276;-74
2022/10/07 10:13:01;;;;;;;3.67;2.10;;;;;;;18.70;45.39;95579.78;5133445;27;20258;-73
2022/10/07 10:15:38;;;;;;;3.10;1.90;;;;;;;18.51;44.25;95580.47;5132641;27;20767;-73
2022/10/07 10:18:25;;;;;;;2.80;1.73;;;;;;;18.71;43.78;95575.88;5132564;27;20200;-72
2022/10/07 10:20:52;;;;;;;2.83;1.85;;;;;;;19.03;44.59;95569.16;5132407;27;20189;-73
2022/10/07 10:23:32;;;;;;;2.42;1.83;;;;;;;18.74;44.89;95569.66;5132473;27;20664;-71
2022/10/07 10:26:28;;;;;;;3.22;2.20;;;;;;;18.76;44.37;95568.16;5132207;27;20732;-71
2022/10/07 10:29:09;;;;;;;4.53;2.15;;;;;;;18.97;44.96;95562.38;5127720;27;20671;-73
2022/10/07 10:31:52;;;;;;;4.75;2.30;;;;;;;19.31;43.95;95565.44;5132380;27;20193;-73
2022/10/07 10:34:34;;;;;;;3.70;1.98;;;;;;;18.90;44.08;95567.69;5131717;27;20644;-71
2022/10/07 10:37:08;;;;;;;3.83;2.13;;;;;;;18.75;45.14;95557.53;5132783;27;20197;-74
2022/10/07 10:39:47;;;;;;;3.63;1.67;;;;;;;18.75;43.81;95550.09;5132346;27;20627;-73
2022/10/07 10:42:23;;;;;;;3.10;1.60;;;;;;;18.76;43.96;95550.91;5132710;27;20197;-73
2022/10/07 10:45:06;;;;;;;2.15;1.60;;;;;;;18.91;44.86;95547.31;5132294;27;20675;-72
2022/10/07 10:47:51;;;;;;;3.92;2.15;;;;;;;18.67;43.73;95553.03;5131863;27;20590;-73
2022/10/07 10:50:25;;;;;;;2.22;1.90;;;;;;;18.79;43.47;95545.50;5131204;27;20293;-72
2022/10/07 10:53:02;;;;;;;2.38;2.00;;;;;;;19.13;43.62;95538.38;5131850;27;20201;-73
2022/10/07 10:55:49;;;;;;;2.35;1.90;;;;;;;19.36;43.83;95537.69;5131122;27;20235;-73
2022/10/07 10:58:31;;;;;;;2.33;1.50;;;;;;;19.64;42.47;95527.31;5131889;27;20276;-72
2022/10/07 11:01:09;;;;;;;4.03;1.95;;;;;;;19.83;42.62;95524.50;5131410;27;20201;-73
2022/10/07 11:04:18;;;;;;;2.58;1.95;;;;;;;19.65;43.93;95520.66;5131399;27;20667;-72
2022/10/07 11:06:48;;;;;;;2.35;1.75;;;;;;;19.43;44.49;95518.59;5129553;27;20201;-72
2022/10/07 11:09:17;;;;;;;2.90;1.83;;;;;;;19.45;43.41;95516.28;5131866;27;20213;-71
2022/10/07 11:11:45;;;;;;;4.28;1.70;;;;;;;19.61;42.61;95502.50;5130871;27;20481;-72
2022/10/07 11:14:17;;;;;;;2.70;1.80;;;;;;;19.40;43.70;95502.84;5131397;27;20229;-73
2022/10/07 11:16:48;;;;;;;3.03;1.40;;;;;;;19.20;44.30;95506.75;5118478;27;20651;-73
2022/10/07 11:19:18;;;;;;;3.25;2.03;;;;;;;19.27;44.03;95504.94;5131790;27;20246;-73
2022/10/07 11:21:48;;;;;;;2.55;1.50;;;;;;;19.50;44.83;95503.09;5131569;27;20273;-73
2022/10/07 11:24:20;;;;;;;3.10;1.92;;;;;;;19.73;44.10;95494.88;5131495;27;20230;-72
2022/10/07 11:26:50;;;;;;;3.38;1.60;;;;;;;19.79;44.41;95498.94;5131399;27;20181;-73
2022/10/07 11:29:31;;;;;;;2.10;1.60;;;;;;;19.74;43.80;95496.47;5131446;27;20292;-71
2022/10/07 11:32:04;;;;;;;1.60;1.30;;;;;;;20.03;43.91;95488.72;5130145;27;20185;-74
2022/10/07 11:34:40;;;;;;;2.50;1.50;;;;;;;20.44;44.00;95484.31;5130052;27;20236;-73
2022/10/07 11:37:15;;;;;;;4.47;1.90;;;;;;;20.31;42.53;95483.69;5130996;27;20299;-73
2022/10/07 11:39:41;;;;;;;3.70;1.52;;;;;;;20.70;42.33;95475.25;5130430;27;20181;-73
2022/10/07 11:42:15;;;;;;;2.53;1.65;;;;;;;20.31;42.51;95480.94;5130820;27;20241;-72
2022/10/07 11:44:54;;;;;;;1.52;1.40;;;;;;;20.11;42.95;95476.66;5123252;27;20201;-74
2022/10/07 11:47:25;;;;;;;3.63;1.55;;;;;;;20.05;42.49;95467.16;5131524;27;20559;-73
2022/10/07 11:50:00;;;;;;;2.17;1.50;;;;;;;20.29;43.23;95466.75;5130664;27;20237;-74
2022/10/07 11:52:31;;;;;;;1.98;1.60;;;;;;;19.83;43.91;95483.25;5131078;27;20656;-73
2022/10/07 11:55:02;;;;;;;2.85;1.40;;;;;;;19.88;43.27;95460.19;5130521;27;20786;-73
2022/10/07 11:57:33;;;;;;;4.18;1.73;;;;;;;19.95;42.20;95463.06;5131007;27;20204;-74
2022/10/07 12:00:04;;;;;;;1.33;1.23;;;;;;;19.48;42.80;95471.59;5130362;27;20201;-73
2022/10/07 12:02:43;;;;;;;3.08;1.70;;;;;;;19.30;42.92;95464.94;5130457;27;20216;-73